createdAt,value
2018-04-12T00:00:49.683Z,98966.92
2018-04-12T00:03:18.582Z,98963.91
2018-04-12T00:05:47.583Z,98959.77
2018-04-12T00:08:16.894Z,98961.80
2018-04-12T00:10:45.841Z,98952.27
2018-04-12T00:13:14.819Z,98959.68
2018-04-12T00:15:44.223Z,98953.48
2018-04-12T00:18:13.224Z,98950.59
2018-04-12T00:20:42.243Z,98943.65
2018-04-12T00:23:11.662Z,98937.30
2018-04-12T00:25:40.712Z,98938.16
2018-04-12T00:28:12.944Z,98929.11
2018-04-12T00:30:42.549Z,98930.59
2018-04-12T00:33:11.694Z,98926.36
2018-04-12T00:35:41.903Z,98923.99
2018-04-12T00:38:12.037Z,98917.59
2018-04-12T00:40:42.587Z,98915.23
2018-04-12T00:43:12.750Z,98913.38
2018-04-12T00:45:42.910Z,98913.20
2018-04-12T00:48:12.847Z,98911.69
2018-04-12T00:50:45.861Z,98908.71
2018-04-12T00:53:16.545Z,98914.84
2018-04-12T00:55:46.055Z,98909.25
2018-04-12T00:58:16.394Z,98908.82
2018-04-12T01:00:46.143Z,98898.04
2018-04-12T01:03:15.216Z,98894.76
2018-04-12T01:05:44.441Z,98894.61
2018-04-12T01:08:13.631Z,98884.14
2018-04-12T01:10:44.071Z,98883.19
2018-04-12T01:13:13.753Z,98870.30
2018-04-12T01:15:43.611Z,98866.59
2018-04-12T01:18:13.549Z,98868.08
2018-04-12T01:20:43.669Z,98862.11
2018-04-12T01:23:12.893Z,98859.95
2018-04-12T01:25:43.707Z,98851.34
2018-04-12T01:28:14.264Z,98840.03
2018-04-12T01:30:44.993Z,98839.45
2018-04-12T01:33:17.958Z,98836.97
2018-04-12T01:35:48.193Z,98830.67
2018-04-12T01:38:17.396Z,98828.03
2018-04-12T01:40:46.680Z,98820.80
2018-04-12T01:43:16.830Z,98819.28
2018-04-12T01:45:46.741Z,98819.91
2018-04-12T01:48:16.517Z,98819.16
2018-04-12T01:50:47.406Z,98813.73
2018-04-12T01:53:17.015Z,98814.00
2018-04-12T01:55:46.477Z,98815.52
2018-04-12T01:58:15.743Z,98818.59
2018-04-12T02:00:45.013Z,98824.67
2018-04-12T02:03:15.265Z,98828.77
2018-04-12T02:05:46.530Z,98819.73
2018-04-12T02:08:16.947Z,98827.74
2018-04-12T02:10:46.812Z,98832.19
2018-04-12T02:13:16.199Z,98825.16
2018-04-12T02:15:45.500Z,98821.15
2018-04-12T02:18:16.591Z,98816.12
2018-04-12T02:20:46.032Z,98810.22
2018-04-12T02:23:15.155Z,98809.96
2018-04-12T02:25:44.478Z,98812.69
2018-04-12T02:28:14.050Z,98806.51
2018-04-12T02:30:43.431Z,98811.32
2018-04-12T02:33:13.032Z,98812.43
2018-04-12T02:35:42.802Z,98819.24
2018-04-12T02:38:12.264Z,98817.56
2018-04-12T02:40:41.405Z,98815.06
2018-04-12T02:43:10.987Z,98805.72
2018-04-12T02:45:40.153Z,98809.62
2018-04-12T02:48:09.377Z,98806.08
2018-04-12T02:50:39.539Z,98807.94
2018-04-12T02:53:08.727Z,98812.95
2018-04-12T02:55:38.027Z,98808.41
2018-04-12T02:58:08.045Z,98807.30
2018-04-12T03:00:37.595Z,98804.03
2018-04-12T03:03:06.996Z,98795.20
2018-04-12T03:05:36.273Z,98797.70
2018-04-12T03:08:06.179Z,98789.09
2018-04-12T03:10:35.368Z,98785.22
2018-04-12T03:13:04.705Z,98780.36
2018-04-12T03:15:34.020Z,98780.57
2018-04-12T03:18:04.166Z,98772.17
2018-04-12T03:20:33.306Z,98763.47
2018-04-12T03:23:02.611Z,98759.61
2018-04-12T03:25:32.210Z,98758.61
2018-04-12T03:28:01.680Z,98749.59
2018-04-12T03:30:31.238Z,98741.88
2018-04-12T03:33:01.023Z,98742.61
2018-04-12T03:35:30.709Z,98737.33
2018-04-12T03:37:59.927Z,98722.23
2018-04-12T03:40:29.073Z,98720.74
2018-04-12T03:42:58.316Z,98721.02
2018-04-12T03:45:27.509Z,98729.14
2018-04-12T03:47:57.176Z,98726.66
2018-04-12T03:50:26.459Z,98730.25
2018-04-12T03:52:55.735Z,98730.61
2018-04-12T03:55:25.059Z,98736.16
2018-04-12T03:57:54.384Z,98732.77
2018-04-12T04:00:23.685Z,98750.20
2018-04-12T04:02:54.440Z,98748.31
2018-04-12T04:05:23.609Z,98744.44
2018-04-12T04:07:52.964Z,98747.14
2018-04-12T04:10:22.180Z,98742.81
2018-04-12T04:12:51.482Z,98746.09
2018-04-12T04:19:33.524Z,98743.60
2018-04-12T04:22:04.450Z,98752.42
2018-04-12T04:24:33.854Z,98758.92
2018-04-12T04:27:03.626Z,98760.93
2018-04-12T04:29:32.802Z,98770.17
2018-04-12T04:32:04.224Z,98781.15
2018-04-12T04:34:33.832Z,98790.27
2018-04-12T04:37:03.694Z,98787.16
2018-04-12T04:39:33.103Z,98785.62
2018-04-12T04:42:03.863Z,98784.45
2018-04-12T04:44:33.279Z,98791.47
2018-04-12T04:47:02.677Z,98793.69
2018-04-12T04:49:32.441Z,98795.48
2018-04-12T04:52:02.703Z,98797.92
2018-04-12T04:54:31.883Z,98801.30
2018-04-12T04:57:02.528Z,98801.52
2018-04-12T04:59:31.774Z,98800.20
2018-04-12T05:02:00.978Z,98794.56
2018-04-12T05:04:30.605Z,98799.15
2018-04-12T05:06:59.518Z,98792.43
2018-04-12T05:09:28.477Z,98785.47
2018-04-12T05:11:58.972Z,98796.81
2018-04-12T05:14:27.908Z,98791.80
2018-04-12T05:16:57.301Z,98786.31
2018-04-12T05:19:26.716Z,98785.47
2018-04-12T05:21:55.927Z,98781.72
2018-04-12T05:24:24.832Z,98771.70
2018-04-12T05:26:54.227Z,98766.20
2018-04-12T05:29:23.227Z,98761.89
2018-04-12T05:31:52.655Z,98754.64
2018-04-12T05:34:22.337Z,98751.73
2018-04-12T05:36:52.448Z,98752.55
2018-04-12T05:39:21.891Z,98751.79
2018-04-12T05:41:52.901Z,98759.45
2018-04-12T05:44:22.125Z,98759.72
2018-04-12T05:46:51.864Z,98755.38
2018-04-12T05:49:21.139Z,98759.55
2018-04-12T05:51:50.910Z,98762.72
2018-04-12T05:54:20.150Z,98769.70
2018-04-12T05:59:30.091Z,98772.08
2018-04-12T06:02:00.314Z,98776.20
2018-04-12T06:04:30.311Z,98765.81
2018-04-12T06:06:59.446Z,98773.09
2018-04-12T06:09:28.576Z,98781.52
2018-04-12T06:11:57.804Z,98778.88
2018-04-12T06:14:27.059Z,98784.38
2018-04-12T06:16:56.273Z,98780.23
2018-04-12T06:19:26.032Z,98778.30
2018-04-12T06:22:01.014Z,98777.50
2018-04-12T06:24:37.112Z,98777.78
2018-04-12T06:27:07.045Z,98774.32
2018-04-12T06:29:35.962Z,98776.88
2018-04-12T06:32:05.950Z,98776.91
2018-04-12T06:34:34.871Z,98774.27
2018-04-12T06:37:03.837Z,98777.56
2018-04-12T06:39:33.674Z,98784.02
2018-04-12T06:42:05.019Z,98781.10
2018-04-12T06:44:33.977Z,98784.06
2018-04-12T06:47:03.766Z,98785.93
2018-04-12T06:49:33.712Z,98779.72
2018-04-12T06:52:04.486Z,98775.58
2018-04-12T06:54:35.151Z,98777.41
2018-04-12T06:57:04.413Z,98764.63
2018-04-12T06:59:33.351Z,98762.41
2018-04-12T07:02:04.192Z,98751.83
2018-04-12T07:04:33.165Z,98746.06
2018-04-12T07:07:02.492Z,98748.80
2018-04-12T07:09:33.836Z,98746.31
2018-04-12T07:12:04.296Z,98741.93
2018-04-12T07:14:33.852Z,98743.23
2018-04-12T07:17:03.312Z,98739.76
2018-04-12T07:19:32.260Z,98733.50
2018-04-12T07:22:01.366Z,98737.74
2018-04-12T07:24:30.630Z,98735.77
2018-04-12T07:27:00.119Z,98735.95
2018-04-12T07:29:29.055Z,98731.23
2018-04-12T07:31:58.262Z,98721.28
2018-04-12T07:34:27.548Z,98718.45
2018-04-12T07:36:56.468Z,98726.11
2018-04-12T07:39:25.935Z,98725.87
2018-04-12T07:41:57.948Z,98724.86
2018-04-12T07:44:28.236Z,98728.77
2018-04-12T07:46:58.450Z,98729.19
2018-04-12T07:49:27.523Z,98732.98
2018-04-12T07:51:57.031Z,98719.06
2018-04-12T07:54:26.250Z,98716.41
2018-04-12T07:56:55.174Z,98723.39
2018-04-12T07:59:24.098Z,98721.71
2018-04-12T08:01:53.446Z,98718.81
2018-04-12T08:04:22.382Z,98717.73
2018-04-12T08:06:51.778Z,98713.75
2018-04-12T08:09:20.986Z,98719.92
2018-04-12T08:11:50.244Z,98721.09
2018-04-12T08:14:19.178Z,98725.63
2018-04-12T08:16:48.785Z,98739.59
2018-04-12T08:19:17.760Z,98752.09
2018-04-12T08:21:46.715Z,98758.48
2018-04-12T08:24:15.979Z,98760.66
2018-04-12T08:26:45.035Z,98768.45
2018-04-12T08:29:14.016Z,98764.32
2018-04-12T08:31:43.353Z,98767.38
2018-04-12T08:34:12.412Z,98770.35
2018-04-12T08:36:41.367Z,98775.84
2018-04-12T08:39:10.655Z,98780.73
2018-04-12T08:41:39.605Z,98795.64
2018-04-12T08:44:08.575Z,98795.21
2018-04-12T08:46:38.797Z,98809.16
2018-04-12T08:49:07.899Z,98813.88
2018-04-12T08:51:36.860Z,98806.13
2018-04-12T08:54:06.715Z,98804.30
2018-04-12T08:56:35.891Z,98799.52
2018-04-12T08:59:06.125Z,98796.36
2018-04-12T09:01:35.288Z,98802.94
2018-04-12T09:04:04.947Z,98806.94
2018-04-12T09:06:33.997Z,98818.86
2018-04-12T09:09:03.991Z,98836.70
2018-04-12T09:11:33.096Z,98837.45
2018-04-12T09:14:02.772Z,98853.62
2018-04-12T09:16:33.680Z,98852.97
2018-04-12T09:19:03.830Z,98854.11
2018-04-12T09:21:32.820Z,98861.55
2018-04-12T09:24:04.024Z,98872.00
2018-04-12T09:26:33.036Z,98868.92
2018-04-12T09:29:02.916Z,98877.60
2018-04-12T09:31:32.347Z,98880.77
2018-04-12T09:34:01.816Z,98878.06
2018-04-12T09:36:30.994Z,98879.71
2018-04-12T09:39:00.447Z,98887.80
2018-04-12T09:41:29.548Z,98892.20
2018-04-12T09:43:58.621Z,98897.22
2018-04-12T09:46:27.891Z,98891.53
2018-04-12T09:48:57.217Z,98883.97
2018-04-12T09:51:27.490Z,98886.58
2018-04-12T09:53:59.363Z,98890.48
2018-04-12T09:56:28.270Z,98889.66
2018-04-12T09:58:57.202Z,98894.43
2018-04-12T10:01:26.172Z,98895.80
2018-04-12T10:03:55.975Z,98891.73
2018-04-12T10:06:25.028Z,98899.41
2018-04-12T10:08:58.294Z,98906.62
2018-04-12T10:11:27.656Z,98912.48
2018-04-12T10:13:56.575Z,98913.52
2018-04-12T10:16:25.461Z,98911.94
2018-04-12T10:18:55.753Z,98910.47
2018-04-12T10:21:24.697Z,98916.34
2018-04-12T10:23:54.813Z,98915.80
2018-04-12T10:26:24.095Z,98905.06
2018-04-12T10:28:53.844Z,98907.91
2018-04-12T10:31:22.860Z,98907.69
2018-04-12T10:33:52.675Z,98918.44
2018-04-12T10:36:21.743Z,98932.80
2018-04-12T10:38:51.286Z,98936.33
2018-04-12T10:41:20.527Z,98935.91
2018-04-12T10:43:50.492Z,98942.27
2018-04-12T10:46:19.571Z,98945.61
2018-04-12T10:48:49.072Z,98941.97
2018-04-12T10:51:18.054Z,98948.27
2018-04-12T10:53:47.094Z,98951.42
2018-04-12T10:56:16.307Z,98940.15
2018-04-12T10:58:45.392Z,98942.80
2018-04-12T11:01:14.303Z,98954.76
2018-04-12T11:03:43.252Z,98954.66
2018-04-12T11:06:12.171Z,98952.69
2018-04-12T11:08:41.104Z,98958.81
2018-04-12T11:11:11.115Z,98950.62
2018-04-12T11:13:40.111Z,98925.41
2018-04-12T11:16:09.390Z,98912.09
2018-04-12T11:18:38.648Z,98914.91
2018-04-12T11:21:08.575Z,98912.89
2018-04-12T11:23:37.699Z,98903.89
2018-04-12T11:28:43.056Z,98908.34
2018-04-12T11:31:12.004Z,98905.91
2018-04-12T11:33:41.237Z,98909.81
2018-04-12T11:36:10.372Z,98902.48
2018-04-12T11:38:39.329Z,98895.85
2018-04-12T11:41:08.560Z,98892.85
2018-04-12T11:43:37.563Z,98892.51
2018-04-12T11:46:06.520Z,98893.78
2018-04-12T11:48:35.984Z,98879.48
2018-04-12T11:51:05.675Z,98877.47
2018-04-12T11:53:34.626Z,98880.16
2018-04-12T11:56:04.941Z,98892.51
2018-04-12T11:58:33.861Z,98914.64
2018-04-12T12:01:04.290Z,98915.66
2018-04-12T12:03:33.529Z,98924.23
2018-04-12T12:06:03.396Z,98941.14
2018-04-12T12:08:32.356Z,98946.57
2018-04-12T12:14:00.716Z,98942.64
2018-04-12T12:16:30.588Z,98940.69
2018-04-12T12:19:00.035Z,98944.01
2018-04-12T12:21:29.008Z,98934.13
2018-04-12T12:23:59.210Z,98931.60
2018-04-12T12:26:28.207Z,98936.66
2018-04-12T12:28:58.626Z,98929.44
2018-04-12T12:31:27.902Z,98929.00
2018-04-12T12:33:56.943Z,98931.18
2018-04-12T12:36:25.885Z,98936.66
2018-04-12T12:38:55.775Z,98949.84
2018-04-12T12:41:24.772Z,98950.13
2018-04-12T12:43:53.733Z,98949.02
2018-04-12T12:46:23.051Z,98954.88
2018-04-12T12:48:52.061Z,98947.86
2018-04-12T12:51:20.984Z,98948.66
2018-04-12T12:53:50.373Z,98947.59
2018-04-12T12:56:19.419Z,98943.12
2018-04-12T12:58:48.395Z,98935.27
2018-04-12T13:01:17.847Z,98941.57
2018-04-12T13:03:46.842Z,98953.72
2018-04-12T13:06:15.783Z,98955.54
2018-04-12T13:08:59.782Z,98957.51
2018-04-12T13:11:28.838Z,98958.22
2018-04-12T13:13:58.167Z,98959.97
2018-04-12T13:16:27.111Z,98964.41
2018-04-12T13:18:56.297Z,98968.44
2018-04-12T13:21:25.598Z,98958.45
2018-04-12T13:23:54.917Z,98962.73
2018-04-12T13:26:23.803Z,98965.55
2018-04-12T13:28:53.142Z,98969.60
2018-04-12T13:31:22.057Z,98968.83
2018-04-12T13:33:51.457Z,98971.17
2018-04-12T13:36:20.766Z,98973.94
2018-04-12T13:38:50.364Z,98982.84
2018-04-12T13:41:19.383Z,98977.40
2018-04-12T13:43:48.839Z,98978.83
2018-04-12T13:46:17.880Z,98986.36
2018-04-12T13:48:46.930Z,98978.77
2018-04-12T13:51:16.364Z,98991.34
2018-04-12T13:53:45.407Z,98982.07
2018-04-12T13:56:14.771Z,98989.08
2018-04-12T13:58:44.019Z,98987.80
2018-04-12T14:01:12.947Z,98982.46
2018-04-12T14:03:41.822Z,98985.16
2018-04-12T14:06:10.727Z,98975.48
2018-04-12T14:08:39.731Z,98977.66
2018-04-12T14:11:08.680Z,98979.13
2018-04-12T14:14:08.931Z,98980.96
2018-04-12T14:16:38.098Z,98979.53
2018-04-12T14:19:07.319Z,98976.41
2018-04-12T14:21:36.232Z,98971.30
2018-04-12T14:24:05.584Z,98969.20
2018-04-12T14:26:34.850Z,98969.80
2018-04-12T14:29:03.860Z,98978.26
2018-04-12T14:31:32.833Z,98969.54
2018-04-12T14:34:03.117Z,98967.17
2018-04-12T14:36:32.020Z,98963.65
2018-04-12T14:39:00.947Z,98958.38
2018-04-12T14:41:30.355Z,98959.03
2018-04-12T14:43:59.261Z,98957.33
2018-04-12T14:46:28.284Z,98959.88
2018-04-12T14:48:59.945Z,98961.98
2018-04-12T14:51:28.924Z,98961.00
2018-04-12T14:53:58.388Z,98965.73
2018-04-12T14:56:27.595Z,98965.69
2018-04-12T14:58:57.156Z,98961.27
2018-04-12T15:01:26.143Z,98967.66
2018-04-12T15:03:56.325Z,98964.83
2018-04-12T15:06:25.361Z,98955.98
2018-04-12T15:08:54.303Z,98961.14
2018-04-12T15:11:23.608Z,98964.47
2018-04-12T15:13:54.827Z,98952.61
2018-04-12T15:16:23.824Z,98957.54
2018-04-12T15:18:54.356Z,98951.38
2018-04-12T15:21:23.289Z,98950.24
2018-04-12T15:23:54.056Z,98947.22
2018-04-12T15:26:23.427Z,98942.64
2018-04-12T15:28:52.743Z,98950.28
2018-04-12T15:33:45.136Z,98945.16
2018-04-12T15:36:14.267Z,98944.97
2018-04-12T15:38:43.560Z,98939.94
2018-04-12T15:41:13.146Z,98941.87
2018-04-12T15:43:42.115Z,98931.63
2018-04-12T15:46:11.325Z,98938.52
2018-04-12T15:48:40.873Z,98936.38
2018-04-12T15:51:09.848Z,98950.45
2018-04-12T15:53:38.966Z,98945.05
2018-04-12T15:56:08.885Z,98948.38
2018-04-12T15:58:38.577Z,98946.84
2018-04-12T16:01:07.587Z,98946.90
2018-04-12T16:03:36.812Z,98940.37
2018-04-12T16:06:06.798Z,98939.56
2018-04-12T16:08:35.803Z,98950.32
2018-04-12T16:11:10.341Z,98947.50
2018-04-12T16:13:39.316Z,98954.45
2018-04-12T16:16:09.582Z,98954.11
2018-04-12T16:18:38.575Z,98954.33
2018-04-12T16:21:07.547Z,98948.11
2018-04-12T16:23:37.215Z,98943.91
2018-04-12T16:26:06.247Z,98950.71
2018-04-12T16:28:35.290Z,98952.81
2018-04-12T16:31:04.927Z,98948.67
2018-04-12T16:33:33.867Z,98955.66
2018-04-12T16:36:04.443Z,98960.09
2018-04-12T16:38:33.468Z,98973.53
2018-04-12T16:41:02.472Z,98964.89
2018-04-12T16:43:31.690Z,98958.98
2018-04-12T16:46:00.647Z,98964.06
2018-04-12T16:48:29.650Z,98968.50
2018-04-12T16:50:58.680Z,98968.96
2018-04-12T16:53:27.716Z,98967.83
2018-04-12T16:55:57.308Z,98967.75
2018-04-12T16:58:26.211Z,98968.67
2018-04-12T17:00:55.382Z,98964.81
2018-04-12T17:03:24.288Z,98964.59
2018-04-12T17:05:54.506Z,98963.00
2018-04-12T17:08:23.749Z,98963.87
2018-04-12T17:10:53.054Z,98966.55
2018-04-12T17:13:22.020Z,98958.50
2018-04-12T17:15:51.210Z,98965.81
2018-04-12T17:18:20.558Z,98966.03
2018-04-12T17:20:50.106Z,98959.81
2018-04-12T17:23:19.705Z,98964.82
2018-04-12T17:25:48.652Z,98963.91
2018-04-12T17:28:17.871Z,98961.84
2018-04-12T17:30:46.799Z,98968.16
2018-04-12T17:33:15.818Z,98968.44
2018-04-12T17:35:45.022Z,98966.88
2018-04-12T17:38:14.039Z,98969.56
2018-04-12T17:40:43.031Z,98966.02
2018-04-12T17:43:12.541Z,98971.73
2018-04-12T17:45:41.555Z,98975.64
2018-04-12T17:48:10.837Z,98979.40
2018-04-12T17:50:39.847Z,98977.03
2018-04-12T17:53:09.751Z,98982.94
2018-04-12T17:55:38.679Z,98983.19
2018-04-12T17:58:07.624Z,98983.73
2018-04-12T18:03:34.026Z,98982.49
2018-04-12T18:06:03.756Z,98982.59
2018-04-12T18:08:33.583Z,98981.02
2018-04-12T18:11:02.670Z,98978.95
2018-04-12T18:13:33.067Z,98983.16
2018-04-12T18:16:01.919Z,98990.47
2018-04-12T18:18:42.638Z,98985.56
2018-04-12T18:21:21.954Z,98989.31
2018-04-12T18:23:50.811Z,98986.27
2018-04-12T18:26:20.082Z,98984.41
2018-04-12T18:28:50.313Z,98994.31
2018-04-12T18:31:18.914Z,98996.38
2018-04-12T19:09:49.844Z,99019.80
2018-04-12T19:12:25.695Z,99019.40
2018-04-12T19:14:54.230Z,99020.16
2018-04-12T19:17:22.753Z,99015.22
2018-04-12T19:19:51.713Z,99023.24
2018-04-12T19:22:20.355Z,99027.04
2018-04-12T19:24:48.905Z,99031.13
2018-04-12T19:27:17.766Z,99039.73
2018-04-12T19:29:47.944Z,99040.72
2018-04-12T19:32:16.506Z,99040.49
2018-04-12T19:34:46.488Z,99042.50
2018-04-12T19:37:15.057Z,99046.70
2018-04-12T19:39:43.938Z,99052.52
2018-04-12T19:42:12.767Z,99047.59
2018-04-12T19:44:41.623Z,99047.50
2018-04-12T19:47:10.431Z,99041.03
2018-04-12T19:49:40.095Z,99051.33
2018-04-12T19:52:09.261Z,99048.35
2018-04-12T19:54:38.436Z,99046.34
2018-04-12T19:57:07.236Z,99051.18
2018-04-12T20:02:39.419Z,99048.77
2018-04-12T20:05:08.300Z,99047.02
2018-04-12T20:07:37.743Z,99050.18
2018-04-12T20:10:06.349Z,99049.61
2018-04-12T20:12:35.972Z,99045.80
2018-04-12T20:15:06.497Z,99045.28
2018-04-12T20:17:37.568Z,99039.78
2018-04-12T20:20:06.497Z,99037.05
2018-04-12T20:22:36.034Z,99032.47
2018-04-12T20:25:04.789Z,99034.29
2018-04-12T20:27:34.703Z,99032.40
2018-04-12T20:30:07.824Z,99031.63
2018-04-12T20:32:36.673Z,99023.23
2018-04-12T20:35:08.254Z,99026.66
2018-04-12T20:37:37.159Z,99025.53
2018-04-12T20:40:06.009Z,99019.03
2018-04-12T20:42:34.611Z,99023.54
2018-04-12T20:45:05.765Z,99028.42
2018-04-12T20:47:35.747Z,99030.00
2018-04-12T20:54:32.610Z,99038.45
2018-04-12T20:59:35.412Z,99034.09
2018-04-12T21:02:10.180Z,99032.11
2018-04-12T21:04:39.103Z,99028.36
2018-04-12T21:07:08.327Z,99026.53
2018-04-12T21:09:37.669Z,99023.45
2018-04-12T21:12:06.452Z,99025.37
2018-04-12T21:14:35.140Z,99029.59
2018-04-12T21:17:03.964Z,99038.28
2018-04-12T21:19:32.870Z,99035.67
2018-04-12T21:22:03.615Z,99037.24
2018-04-12T21:24:32.442Z,99037.34
2018-04-12T21:27:01.069Z,99039.81
2018-04-12T21:29:37.069Z,99038.91
2018-04-12T21:32:05.604Z,99044.22
2018-04-12T21:34:34.541Z,99043.37
2018-04-12T21:37:03.189Z,99048.56
2018-04-12T21:39:31.853Z,99042.73
2018-04-12T21:42:00.486Z,99047.38
2018-04-12T21:44:29.530Z,99051.41
2018-04-12T21:46:59.406Z,99042.86
2018-04-12T21:49:28.179Z,99038.95
2018-04-12T21:51:56.890Z,99040.58
2018-04-12T21:54:26.035Z,99031.82
2018-04-12T21:56:54.816Z,99032.13
2018-04-12T21:59:24.658Z,99029.56
2018-04-12T22:01:53.253Z,99040.82
2018-04-12T22:04:22.056Z,99034.67
2018-04-12T22:06:50.986Z,99025.30
2018-04-12T22:09:27.783Z,99031.64
2018-04-12T22:11:57.323Z,99031.85
2018-04-12T22:14:27.051Z,99038.72
2018-04-12T22:16:56.091Z,99041.09
2018-04-12T22:19:25.820Z,99040.84
2018-04-12T22:21:54.590Z,99047.61
2018-04-12T22:24:29.233Z,99049.07
2018-04-12T22:26:59.167Z,99045.23
2018-04-12T22:29:29.487Z,99050.89
2018-04-12T22:32:03.826Z,99056.06
2018-04-12T22:34:33.680Z,99051.77
2018-04-12T22:37:02.380Z,99056.82
2018-04-12T22:39:31.431Z,99055.47
2018-04-12T22:42:00.130Z,99055.11
2018-04-12T22:44:28.724Z,99051.23
2018-04-12T22:46:57.784Z,99047.48
2018-04-12T22:49:28.325Z,99051.10
2018-04-12T22:51:57.079Z,99055.95
2018-04-12T22:57:01.076Z,99063.68
2018-04-12T22:59:30.076Z,99062.73
2018-04-12T23:01:59.580Z,99062.42
2018-04-12T23:04:29.061Z,99065.36
2018-04-12T23:06:57.769Z,99067.55
2018-04-12T23:09:27.263Z,99064.34
2018-04-12T23:11:56.289Z,99063.37
2018-04-12T23:14:25.017Z,99064.98
2018-04-12T23:16:53.660Z,99065.42
2018-04-12T23:19:22.970Z,99073.80
2018-04-12T23:21:51.726Z,99076.87
2018-04-12T23:24:26.509Z,99086.30
2018-04-12T23:26:55.130Z,99083.61
2018-04-12T23:29:24.668Z,99086.17
2018-04-12T23:31:53.643Z,99083.41
2018-04-12T23:34:22.455Z,99084.12
2018-04-12T23:36:51.207Z,99093.29
2018-04-12T23:39:27.470Z,99088.91
2018-04-12T23:41:56.152Z,99090.72
2018-04-12T23:44:24.978Z,99087.06
2018-04-12T23:46:54.018Z,99094.65
2018-04-12T23:49:29.791Z,99099.20
2018-04-12T23:51:58.408Z,99095.66
2018-04-12T23:54:29.411Z,99105.38
2018-04-12T23:56:58.336Z,99110.41
2018-04-12T23:59:28.079Z,99107.06
